3FD8 weather

West Boca Medical Center Heliport
Boca Raton, Florida, United States

Public forecast

Using degrees Fahrenheit for public forecast. Weather courtesy of forecast.io.

METAR (pilot weather report)

Closest report is Boca Raton Airport, 5.2 nm (9.6 km) ENE. Retrieved 2019/06/25 13:53 UTC (1 hour ago):

KBCT 251353Z 27005KT 10SM CLR 33/25 A3006

TAF (pilot weather forecast)

Closest forecast is Fort Lauderdale Executive Airport, 9.6 nm (17.8 km) S. Retrieved 2019/06/25 12:42 UTC (2 hours ago):

TAF KFXE 251139Z 2512/2612 VRB03KT P6SM SKC FM251600 10008KT P6SM FEW030 SCT060 FM260100 VRB03KT P6SM SCT035 SCT060